Time;durP1;ratioP1;P1;durP2;ratioP2;P2;SDS_P1;SDS_P2;PMS_P1;PMS_P2;Temp;Humidity;BMP_temperature;BMP_pressure;BME280_temperature;BME280_humidity;BME280_pressure;Samples;Min_cycle;Max_cycle;Signal;HPM_P1;HPM_P2
2022/01/31 00:00:57;;;;;;;43.85;8.40;;;4.30;99.90;;;4.24;56.51;98204.34;5018708;28;20041;-80
2022/01/31 00:03:22;;;;;;;42.25;7.05;;;4.30;99.90;;;4.31;56.10;98201.50;5033457;28;20037;-81
2022/01/31 00:05:49;;;;;;;29.33;7.22;;;4.40;99.90;;;4.33;55.53;98186.75;5018434;28;20049;-80
2022/01/31 00:08:21;;;;;;;41.25;7.82;;;4.40;99.90;;;4.33;56.08;98194.00;5028043;28;20103;-80
2022/01/31 00:10:47;;;;;;;40.38;8.63;;;4.40;99.90;;;4.42;55.76;98208.63;5031138;28;20083;-80
2022/01/31 00:13:19;;;;;;;30.45;7.13;;;4.50;99.90;;;4.33;55.30;98208.25;5025541;28;20045;-80
2022/01/31 00:15:53;;;;;;;35.83;8.82;;;4.50;99.90;;;4.28;55.92;98196.63;5029148;28;20040;-80
2022/01/31 00:18:18;;;;;;;30.60;7.45;;;4.40;99.90;;;4.34;55.76;98211.75;5015144;28;20049;-80
2022/01/31 00:20:44;;;;;;;41.00;7.53;;;4.40;99.90;;;4.34;55.84;98201.81;5016046;28;20104;-80
2022/01/31 00:23:10;;;;;;;26.48;7.13;;;4.40;99.90;;;4.32;56.10;98200.44;4995996;28;20144;-80
2022/01/31 00:25:36;;;;;;;36.90;7.10;;;4.40;99.90;;;4.35;56.07;98207.97;5032733;28;20096;-80
2022/01/31 00:28:02;;;;;;;51.53;9.43;;;4.40;99.90;;;4.37;56.48;98203.19;5017238;28;20122;-80
2022/01/31 00:30:29;;;;;;;30.08;7.22;;;4.50;99.90;;;4.34;57.07;98219.78;5034854;28;20049;-80
2022/01/31 00:32:54;;;;;;;32.08;7.47;;;4.50;99.90;;;4.36;57.07;98228.41;5022342;28;20056;-80
2022/01/31 00:35:20;;;;;;;32.55;7.50;;;4.40;99.90;;;4.22;57.18;98202.97;5002736;28;20091;-80
2022/01/31 00:37:47;;;;;;;34.10;8.30;;;4.40;99.90;;;4.08;58.25;98199.84;5014422;28;20626;-80
2022/01/31 00:40:13;;;;;;;29.00;7.57;;;4.30;99.90;;;4.01;58.13;98220.66;5014426;28;20045;-80
2022/01/31 00:42:39;;;;;;;27.77;6.07;;;4.30;99.90;;;4.07;57.34;98195.50;5017145;28;20056;-80
2022/01/31 00:45:27;;;;;;;30.88;6.53;;;4.20;99.90;;;4.12;56.36;98212.53;5013115;28;20438;-80
2022/01/31 00:48:05;;;;;;;35.13;6.72;;;4.20;99.90;;;4.26;55.16;98214.84;5021876;28;20112;-80
2022/01/31 00:50:39;;;;;;;29.48;5.45;;;4.30;99.90;;;4.29;55.21;98198.25;5015678;28;20041;-80
2022/01/31 00:53:06;;;;;;;27.05;7.38;;;4.30;99.90;;;4.32;53.92;98197.75;5014085;28;20048;-80
2022/01/31 00:55:32;;;;;;;28.83;6.07;;;4.40;99.90;;;4.29;54.77;98200.94;5047748;28;20120;-80
2022/01/31 00:57:58;;;;;;;25.60;5.70;;;4.40;99.90;;;4.23;53.11;98196.56;5031831;28;20423;-80
2022/01/31 01:00:24;;;;;;;36.28;8.02;;;4.40;99.90;;;4.28;53.31;98193.94;5049266;28;20115;-80
2022/01/31 01:02:50;;;;;;;38.53;6.30;;;4.40;99.90;;;4.31;52.79;98193.44;5051638;28;20043;-80
2022/01/31 01:05:16;;;;;;;31.65;4.97;;;4.40;99.90;;;4.40;52.27;98194.66;4999506;28;20037;-80
2022/01/31 01:07:46;;;;;;;28.70;6.38;;;4.40;99.90;;;4.39;52.20;98198.38;5023924;28;20048;-80
2022/01/31 01:10:16;;;;;;;23.00;4.40;;;4.40;99.90;;;4.41;52.70;98207.00;5013819;28;20081;-80
2022/01/31 01:12:42;;;;;;;27.15;5.45;;;4.50;99.90;;;4.42;52.46;98207.81;5050077;28;20087;-81
2022/01/31 01:15:09;;;;;;;35.47;5.32;;;4.50;99.90;;;4.40;52.11;98165.13;5048542;28;20339;-81
2022/01/31 01:17:36;;;;;;;25.77;6.88;;;4.40;99.90;;;4.42;52.66;98205.94;5048062;28;20044;-81
2022/01/31 01:20:04;;;;;;;31.23;6.55;;;4.50;99.90;;;4.45;51.46;98196.56;5017562;28;20517;-80
2022/01/31 01:22:29;;;;;;;24.98;6.53;;;4.50;99.90;;;4.42;50.98;98192.50;5000368;28;20067;-80
2022/01/31 01:24:56;;;;;;;18.35;4.63;;;4.50;99.90;;;4.38;51.83;98201.34;5031326;28;20399;-80
2022/01/31 01:27:23;;;;;;;22.13;3.95;;;4.40;99.90;;;4.42;51.98;98191.69;5015847;28;20045;-80
2022/01/31 01:29:49;;;;;;;26.20;6.30;;;4.40;99.90;;;4.47;51.44;98199.81;5030788;28;20124;-80
2022/01/31 01:32:15;;;;;;;29.02;6.00;;;4.50;99.90;;;4.32;52.20;98173.56;5017194;28;20049;-80
2022/01/31 01:34:41;;;;;;;27.92;6.30;;;4.50;99.90;;;4.26;52.16;98174.59;5034213;28;20061;-80
2022/01/31 01:37:07;;;;;;;19.17;4.63;;;4.40;99.90;;;4.24;51.06;98158.72;5013496;28;20044;-80
2022/01/31 01:39:33;;;;;;;21.75;5.10;;;4.40;99.90;;;4.27;50.78;98143.97;5029524;28;20051;-80
2022/01/31 01:41:59;;;;;;;16.55;4.50;;;4.40;99.90;;;4.28;50.87;98165.22;5033618;28;20473;-80
2022/01/31 01:44:46;;;;;;;21.20;5.15;;;4.40;99.90;;;4.30;50.60;98167.63;5025374;28;20044;-80
2022/01/31 01:47:17;;;;;;;27.48;5.47;;;4.40;99.90;;;4.25;50.62;98160.34;5012599;28;20041;-80
2022/01/31 01:49:43;;;;;;;25.42;5.20;;;4.30;99.90;;;4.26;50.98;98161.97;5040692;28;20043;-80
2022/01/31 01:52:10;;;;;;;20.77;4.18;;;4.40;99.90;;;4.29;50.30;98157.97;5030670;28;20048;-81
2022/01/31 01:54:36;;;;;;;20.40;4.05;;;4.30;99.90;;;4.21;50.35;98163.78;5042634;28;20630;-81
2022/01/31 01:57:03;;;;;;;21.27;5.25;;;4.30;99.90;;;4.16;50.20;98148.41;5013216;28;20067;-80
2022/01/31 01:59:33;;;;;;;19.23;4.15;;;4.20;99.90;;;4.14;50.65;98153.19;5012126;28;20047;-80
2022/01/31 02:01:59;;;;;;;28.70;5.03;;;4.20;99.90;;;4.17;51.03;98143.84;5000118;28;20128;-80
2022/01/31 02:04:27;;;;;;;6.38;3.58;;;4.20;99.90;;;4.21;50.49;98144.97;5035461;28;20073;-80
2022/01/31 02:06:53;;;;;;;25.40;5.00;;;4.20;99.90;;;4.16;50.53;98144.91;5031873;28;20431;-80
2022/01/31 02:09:22;;;;;;;25.77;4.28;;;4.20;99.90;;;4.04;50.44;98118.97;5012749;28;20120;-80
2022/01/31 02:11:48;;;;;;;23.35;4.75;;;4.10;99.90;;;4.11;50.72;98133.03;5035779;28;20116;-81
2022/01/31 02:14:14;;;;;;;25.00;4.40;;;4.20;99.90;;;4.14;50.36;98124.47;5037234;28;20372;-80
2022/01/31 02:16:41;;;;;;;26.40;5.63;;;4.10;99.90;;;4.15;49.80;98149.47;5042061;28;20108;-80
2022/01/31 02:19:08;;;;;;;15.23;4.43;;;4.10;99.90;;;4.14;49.83;98131.72;5066863;28;20037;-80
2022/01/31 02:21:34;;;;;;;20.08;2.95;;;4.20;99.90;;;4.16;49.98;98124.25;5044807;28;20048;-80
2022/01/31 02:24:00;;;;;;;37.78;6.45;;;4.10;99.90;;;4.18;49.98;98127.50;5045454;28;20108;-80
2022/01/31 02:26:26;;;;;;;30.95;5.28;;;4.10;99.90;;;4.07;50.41;98106.94;5028925;28;20088;-80
2022/01/31 02:28:52;;;;;;;17.67;4.53;;;4.10;99.90;;;4.07;49.38;98126.56;5032640;28;20579;-80
2022/01/31 02:31:18;;;;;;;18.60;4.43;;;4.10;99.90;;;4.00;49.72;98120.56;5012508;28;20127;-80
2022/01/31 02:33:44;;;;;;;15.82;3.47;;;4.10;99.90;;;3.90;50.34;98121.22;5001778;28;20499;-80
2022/01/31 02:36:10;;;;;;;23.85;4.82;;;4.00;99.90;;;3.92;50.16;98121.78;5029966;28;20076;-80
2022/01/31 02:38:37;;;;;;;19.80;5.18;;;3.90;99.90;;;3.87;49.83;98121.72;5031029;28;20145;-80
2022/01/31 02:41:03;;;;;;;24.08;4.72;;;4.00;99.90;;;3.83;50.28;98125.94;5016583;28;20039;-80
2022/01/31 02:43:32;;;;;;;22.75;3.95;;;3.90;99.90;;;3.82;49.64;98094.00;4998767;28;20045;-80
2022/01/31 02:45:58;;;;;;;15.55;3.85;;;3.90;99.90;;;3.78;50.11;98095.56;5033173;28;20120;-80
2022/01/31 02:48:25;;;;;;;26.90;7.47;;;3.90;99.90;;;3.68;49.89;98099.69;5014566;28;20037;-80
2022/01/31 02:50:52;;;;;;;15.70;5.13;;;3.80;99.90;;;3.59;50.56;98103.88;5014924;28;20587;-80
2022/01/31 02:53:24;;;;;;;20.30;5.15;;;3.70;99.90;;;3.51;49.88;98084.69;5021980;28;20095;-80
2022/01/31 02:55:51;;;;;;;22.42;6.65;;;3.60;99.90;;;3.48;50.69;98102.06;5015711;28;20150;-80
2022/01/31 02:58:17;;;;;;;26.05;4.03;;;3.60;99.90;;;3.36;50.53;98096.81;5014099;28;20068;-80
2022/01/31 03:00:43;;;;;;;30.55;4.60;;;3.50;99.90;;;3.33;50.11;98109.88;4997111;28;20072;-80
2022/01/31 03:03:09;;;;;;;25.35;5.97;;;3.40;99.90;;;3.20;51.13;98102.97;5028176;28;20067;-80
2022/01/31 03:05:35;;;;;;;20.17;3.38;;;3.40;99.90;;;3.11;51.67;98105.25;5012446;28;20051;-80
2022/01/31 03:08:01;;;;;;;18.40;3.10;;;3.30;99.90;;;3.17;50.98;98098.09;5031654;28;20116;-80
2022/01/31 03:10:27;;;;;;;20.67;3.50;;;3.30;99.90;;;3.17;51.18;98088.19;4990918;28;20065;-80
2022/01/31 03:12:53;;;;;;;25.40;4.65;;;3.20;99.90;;;3.18;50.36;98091.69;5028214;28;20115;-80
2022/01/31 03:15:19;;;;;;;22.45;5.65;;;3.30;99.90;;;3.22;50.30;98074.88;5042307;28;20045;-80
2022/01/31 03:17:50;;;;;;;16.08;2.90;;;3.30;99.90;;;3.25;49.91;98060.16;5028248;28;20505;-80
2022/01/31 03:20:18;;;;;;;24.70;5.07;;;3.30;99.90;;;3.30;50.48;98088.94;5032920;28;20099;-80
2022/01/31 03:22:44;;;;;;;24.40;4.43;;;3.40;99.90;;;3.33;50.48;98067.00;5038295;28;20053;-80
2022/01/31 03:25:10;;;;;;;16.13;3.40;;;3.40;99.90;;;3.39;50.53;98058.00;5039531;28;20075;-80
2022/01/31 03:27:36;;;;;;;20.67;4.63;;;3.50;99.90;;;3.45;50.63;98073.88;5018888;28;20049;-80
2022/01/31 03:30:05;;;;;;;22.33;4.18;;;3.50;99.90;;;3.46;50.50;98072.00;5017549;28;20407;-80
2022/01/31 03:32:31;;;;;;;22.13;4.07;;;3.50;99.90;;;3.39;50.42;98060.66;5016988;28;20059;-80
2022/01/31 03:34:57;;;;;;;21.27;4.45;;;3.60;99.90;;;3.38;50.57;98065.19;5031379;28;20036;-80
2022/01/31 03:37:23;;;;;;;12.43;3.45;;;3.50;99.90;;;3.46;49.94;98047.88;5014825;28;20076;-80
2022/01/31 03:39:49;;;;;;;27.38;4.47;;;3.50;99.90;;;3.45;50.34;98046.28;5017378;28;20049;-80
2022/01/31 03:42:18;;;;;;;24.65;4.43;;;3.60;99.90;;;3.47;49.65;98052.19;4998784;28;20079;-80
2022/01/31 03:44:47;;;;;;;15.52;3.25;;;3.60;99.90;;;3.51;49.54;98039.09;5016389;28;20037;-80
2022/01/31 03:47:16;;;;;;;23.95;4.63;;;3.60;99.90;;;3.54;50.24;98046.69;5039710;28;20041;-80
2022/01/31 03:49:42;;;;;;;24.42;3.72;;;3.60;99.90;;;3.51;49.71;98063.25;5038204;28;20048;-80
2022/01/31 03:52:08;;;;;;;21.25;5.22;;;3.60;99.90;;;3.52;49.32;98051.47;5017335;28;20051;-80
2022/01/31 03:54:34;;;;;;;26.42;4.30;;;3.60;99.90;;;3.54;50.15;98039.44;5016910;28;20341;-80
2022/01/31 03:57:00;;;;;;;24.92;4.32;;;3.60;99.90;;;3.57;49.67;98062.28;5030640;28;20043;-80
2022/01/31 03:59:26;;;;;;;24.60;3.65;;;3.70;99.90;;;3.49;50.22;98066.19;5054399;28;22164;-80
2022/01/31 04:01:52;;;;;;;32.45;5.35;;;3.70;99.90;;;3.49;50.53;98047.41;5016902;28;20073;-80
2022/01/31 04:04:18;;;;;;;33.78;6.22;;;3.60;99.90;;;3.53;50.65;98045.84;5017441;28;20037;-80
2022/01/31 04:06:44;;;;;;;23.58;4.80;;;3.70;99.90;;;3.58;50.02;98053.97;5019854;28;20395;-80
2022/01/31 04:09:10;;;;;;;25.13;4.80;;;3.70;99.90;;;3.59;50.16;98055.59;5010122;28;20116;-80
2022/01/31 04:11:36;;;;;;;21.90;4.78;;;3.70;99.90;;;3.64;50.36;98049.50;5034335;28;20060;-80
2022/01/31 04:14:02;;;;;;;20.65;4.95;;;3.70;99.90;;;3.53;51.08;98045.84;5034727;28;20045;-80
2022/01/31 04:16:27;;;;;;;28.42;4.55;;;3.70;99.90;;;3.44;51.06;98032.06;5031857;28;20116;-80
2022/01/31 04:18:53;;;;;;;30.45;5.05;;;3.60;99.90;;;3.47;50.93;98028.88;5028159;28;20115;-80
2022/01/31 04:21:21;;;;;;;30.40;5.20;;;3.60;99.90;;;3.44;50.58;98024.00;5023687;28;20503;-80
2022/01/31 04:23:51;;;;;;;39.17;6.35;;;3.60;99.90;;;3.33;51.25;98014.19;5049691;28;20040;-80
2022/01/31 04:26:20;;;;;;;39.83;6.70;;;3.60;99.90;;;3.29;52.09;98026.47;5031318;28;20045;-80
2022/01/31 04:28:51;;;;;;;28.48;4.30;;;3.50;99.90;;;3.25;51.15;98018.09;4994927;28;20557;-80
2022/01/31 04:33:50;;;;;;;22.25;5.10;;;3.40;99.90;;;3.13;51.50;98019.25;5029101;28;20041;-80
2022/01/31 04:36:16;;;;;;;22.23;4.88;;;3.30;99.90;;;3.09;52.59;98010.88;5001797;28;20037;-80
2022/01/31 04:38:46;;;;;;;22.77;5.50;;;3.30;99.90;;;3.15;52.16;98015.25;5013861;28;20040;-80
2022/01/31 04:41:12;;;;;;;39.90;5.78;;;3.30;99.90;;;3.18;50.83;98006.75;4999343;28;20055;-80
2022/01/31 04:43:38;;;;;;;22.83;5.78;;;3.30;99.90;;;3.24;50.98;98005.75;5015856;28;20083;-80
2022/01/31 04:46:06;;;;;;;20.17;3.55;;;3.40;99.90;;;3.28;51.19;98005.25;5032776;28;20231;-80
2022/01/31 04:48:33;;;;;;;13.40;4.13;;;3.40;99.90;;;3.29;51.03;98004.22;5014014;28;20417;-80
2022/01/31 04:50:59;;;;;;;22.38;4.13;;;3.40;99.90;;;3.28;50.99;98015.97;5020358;28;20052;-80
2022/01/31 04:53:25;;;;;;;30.85;5.50;;;3.40;99.90;;;3.32;50.55;98017.13;5034300;28;20041;-80
2022/01/31 04:55:51;;;;;;;22.73;4.95;;;3.40;99.90;;;3.33;51.05;98011.50;5015648;28;20136;-80
2022/01/31 04:58:17;;;;;;;29.27;5.78;;;3.40;99.90;;;3.37;50.99;98009.97;5011182;28;20044;-80
2022/01/31 05:00:43;;;;;;;18.42;5.43;;;3.40;99.90;;;3.41;50.68;98015.63;5029617;28;20394;-80
2022/01/31 05:03:15;;;;;;;30.45;5.32;;;3.40;99.90;;;3.41;50.81;98016.47;5019798;28;20037;-80
2022/01/31 05:05:41;;;;;;;33.92;4.82;;;3.50;99.90;;;3.40;51.03;98011.34;5008237;28;20048;-80
2022/01/31 05:08:07;;;;;;;26.35;5.65;;;3.50;99.90;;;3.43;50.85;98010.84;5043260;28;20080;-80
2022/01/31 05:10:34;;;;;;;18.20;6.03;;;3.50;99.90;;;3.50;50.74;98006.13;5010858;28;20069;-80
2022/01/31 05:13:01;;;;;;;36.33;7.15;;;3.60;99.90;;;3.51;51.00;98001.56;5011649;28;20597;-81
2022/01/31 05:15:27;;;;;;;31.77;5.72;;;3.60;99.90;;;3.49;50.38;98001.81;5014711;28;20571;-80
2022/01/31 05:17:53;;;;;;;44.45;7.63;;;3.50;99.90;;;3.45;51.08;97998.00;5033270;28;20074;-80
2022/01/31 05:20:19;;;;;;;24.55;6.15;;;3.50;99.90;;;3.40;51.28;97988.03;5015161;28;20857;-77
2022/01/31 05:22:45;;;;;;;23.02;5.30;;;3.50;99.90;;;3.46;50.88;97981.69;5014222;28;20075;-76
2022/01/31 05:25:11;;;;;;;25.23;5.72;;;3.50;99.90;;;3.44;51.56;97983.00;5028407;28;20041;-76
2022/01/31 05:27:37;;;;;;;20.95;4.75;;;3.50;99.90;;;3.37;51.71;97977.00;5012183;28;20075;-76
2022/01/31 05:30:04;;;;;;;26.17;4.55;;;3.50;99.90;;;3.34;51.88;97972.94;5032592;28;20042;-76
2022/01/31 05:32:30;;;;;;;32.42;6.13;;;3.50;99.90;;;3.21;52.01;97975.97;5036427;28;20093;-76
2022/01/31 05:34:56;;;;;;;24.67;5.50;;;3.40;99.90;;;3.15;51.55;97967.03;5048046;28;20049;-76
2022/01/31 05:37:22;;;;;;;24.63;4.47;;;3.30;99.90;;;3.08;52.51;97962.88;5027244;28;20033;-76
2022/01/31 05:39:48;;;;;;;35.67;5.30;;;3.20;99.90;;;3.00;52.98;97964.94;5006930;28;20037;-76
2022/01/31 05:42:14;;;;;;;17.80;5.43;;;3.10;99.90;;;2.93;53.15;97956.25;5027870;28;20126;-76
2022/01/31 05:44:40;;;;;;;21.38;4.57;;;3.00;99.90;;;2.80;53.31;97944.00;5049194;28;20079;-76
2022/01/31 05:47:06;;;;;;;29.02;5.72;;;3.00;99.90;;;2.74;53.98;97938.81;5027031;28;20552;-77
2022/01/31 05:49:32;;;;;;;26.35;5.95;;;2.90;99.90;;;2.68;53.72;97937.94;5011051;28;20049;-76
2022/01/31 05:52:02;;;;;;;35.20;6.03;;;2.80;99.90;;;2.58;54.08;97935.09;5030442;28;20045;-76
2022/01/31 05:54:29;;;;;;;31.42;6.28;;;2.70;99.90;;;2.50;54.28;97928.28;5013616;28;20129;-76
2022/01/31 05:56:59;;;;;;;39.13;5.63;;;2.60;99.90;;;2.48;54.50;97938.41;5036433;28;20214;-76
2022/01/31 05:59:25;;;;;;;33.17;6.78;;;2.60;99.90;;;2.36;54.96;97933.09;5033382;28;20049;-76
2022/01/31 06:01:51;;;;;;;48.28;8.45;;;2.60;99.90;;;2.28;55.43;97938.06;5008016;28;20476;-76
2022/01/31 06:04:17;;;;;;;31.02;6.88;;;2.50;99.90;;;2.24;54.98;97934.22;5028589;28;20562;-76
2022/01/31 06:06:43;;;;;;;33.83;6.68;;;2.40;99.90;;;2.18;55.81;97933.34;5015939;28;20041;-76
2022/01/31 06:09:09;;;;;;;22.98;5.85;;;2.40;99.90;;;2.16;55.80;97932.75;5045585;28;20045;-76
2022/01/31 06:11:35;;;;;;;36.88;6.78;;;2.30;99.90;;;2.17;55.41;97932.53;5010482;28;20478;-77
2022/01/31 06:14:02;;;;;;;31.05;6.30;;;2.30;99.90;;;2.21;55.96;97924.81;5044289;28;20047;-77
2022/01/31 06:16:29;;;;;;;29.52;7.22;;;2.30;99.90;;;2.27;56.03;97907.00;5013818;28;20036;-76
2022/01/31 06:18:55;;;;;;;26.30;5.95;;;2.40;99.90;;;2.30;55.85;97910.00;5030506;28;20123;-76
2022/01/31 06:21:21;;;;;;;24.45;5.15;;;2.40;99.90;;;2.30;56.13;97898.50;5033709;28;20104;-77
2022/01/31 06:23:47;;;;;;;32.60;5.88;;;2.50;99.90;;;2.30;55.59;97901.97;5032783;28;20042;-76
2022/01/31 06:26:13;;;;;;;20.33;6.18;;;2.50;99.90;;;2.36;55.50;97903.66;5027421;28;20522;-76
2022/01/31 06:28:40;;;;;;;28.55;7.22;;;2.50;99.90;;;2.41;56.07;97905.63;5026122;28;20049;-76
2022/01/31 06:31:06;;;;;;;25.85;6.32;;;2.50;99.90;;;2.46;55.23;97896.88;5061834;28;20051;-76
2022/01/31 06:33:32;;;;;;;28.90;7.03;;;2.60;99.90;;;2.54;55.23;97893.78;5012603;28;20045;-76
2022/01/31 06:35:59;;;;;;;35.80;7.30;;;2.60;99.90;;;2.60;55.24;97884.78;5034966;28;20515;-76
2022/01/31 06:38:28;;;;;;;21.65;6.43;;;2.70;99.90;;;2.67;54.89;97885.44;5012156;28;20055;-76
2022/01/31 06:40:54;;;;;;;33.75;7.95;;;2.80;99.90;;;2.73;54.39;97876.41;5011919;28;20044;-77
2022/01/31 06:43:20;;;;;;;33.78;7.40;;;2.80;99.90;;;2.83;53.90;97876.56;5027869;28;20065;-76
2022/01/31 06:45:46;;;;;;;37.42;7.13;;;3.00;99.90;;;2.92;53.77;97884.16;5028422;28;20037;-77
2022/01/31 06:48:12;;;;;;;27.13;6.53;;;3.00;99.90;;;2.98;54.44;97870.63;5025698;28;20163;-77
2022/01/31 06:50:38;;;;;;;56.55;10.18;;;3.10;99.90;;;3.04;53.97;97883.00;5025408;28;20075;-76
2022/01/31 06:53:05;;;;;;;26.25;7.88;;;3.20;99.90;;;3.10;53.92;97886.56;5043037;28;20049;-76
2022/01/31 06:55:34;;;;;;;33.80;6.93;;;3.20;99.90;;;3.18;53.55;97886.16;5025791;28;20047;-77
2022/01/31 06:58:00;;;;;;;40.90;7.10;;;3.30;99.90;;;3.28;53.18;97871.25;5043430;28;20041;-77
2022/01/31 07:00:26;;;;;;;31.98;7.60;;;3.40;99.90;;;3.37;52.56;97867.09;5008329;28;20045;-76
2022/01/31 07:02:52;;;;;;;28.52;7.60;;;3.50;99.90;;;3.49;52.46;97862.41;5013864;28;20508;-76
2022/01/31 07:05:18;;;;;;;37.60;7.63;;;3.60;99.90;;;3.60;52.49;97869.50;5033907;28;20086;-76
2022/01/31 07:07:45;;;;;;;37.45;9.13;;;3.70;99.90;;;3.63;51.43;97860.13;5034687;28;20574;-76
2022/01/31 07:10:11;;;;;;;44.90;9.13;;;3.80;99.90;;;3.96;51.29;97861.00;5043453;28;20057;-77
2022/01/31 07:12:40;;;;;;;39.47;8.77;;;3.90;99.90;;;4.02;50.98;97850.09;5014288;28;20124;-76
2022/01/31 07:15:10;;;;;;;39.20;8.38;;;3.90;99.90;;;4.10;49.83;97841.56;5029250;28;20068;-76
2022/01/31 07:17:36;;;;;;;36.05;7.28;;;4.10;99.90;;;4.13;49.61;97846.41;5031448;28;20449;-76
2022/01/31 07:20:10;;;;;;;35.00;7.22;;;4.20;99.90;;;4.25;49.29;97845.41;5015990;28;20057;-76
2022/01/31 07:22:38;;;;;;;30.88;6.55;;;4.30;99.90;;;4.34;49.27;97843.91;5042764;28;20143;-76
2022/01/31 07:25:08;;;;;;;31.67;7.68;;;4.40;99.90;;;4.48;48.82;97850.47;5024536;28;20044;-76
2022/01/31 07:27:35;;;;;;;38.90;7.85;;;4.50;99.90;;;4.48;48.64;97842.41;5051500;28;20120;-76
2022/01/31 07:30:05;;;;;;;26.08;6.82;;;4.60;99.90;;;4.47;48.98;97838.09;5027568;28;20123;-76
2022/01/31 07:32:31;;;;;;;36.13;8.30;;;4.60;99.90;;;4.46;49.60;97836.47;5027995;28;20599;-76
2022/01/31 07:34:57;;;;;;;25.55;6.80;;;4.70;99.90;;;4.51;49.06;97825.78;5027977;28;20061;-76
2022/01/31 07:37:23;;;;;;;43.53;8.70;;;4.70;99.90;;;4.48;49.06;97812.06;5031023;28;20480;-76
2022/01/31 07:39:49;;;;;;;35.88;7.60;;;4.70;99.90;;;4.51;48.94;97828.47;5036822;28;20517;-76
2022/01/31 07:42:16;;;;;;;36.30;7.85;;;4.80;99.90;;;4.56;48.71;97823.13;5034407;28;20128;-76
2022/01/31 07:44:42;;;;;;;31.98;6.85;;;4.80;99.90;;;4.61;49.70;97818.88;5046674;28;20539;-76
2022/01/31 07:47:08;;;;;;;23.88;7.38;;;4.80;99.90;;;4.59;49.49;97811.06;5013551;28;20048;-76
2022/01/31 07:49:34;;;;;;;28.02;6.95;;;4.80;99.90;;;4.59;49.27;97813.75;5012350;28;20040;-77
2022/01/31 07:52:01;;;;;;;29.17;9.63;;;4.80;99.90;;;4.52;49.55;97811.25;5042860;28;20036;-76
2022/01/31 07:54:27;;;;;;;30.90;6.85;;;4.90;99.90;;;4.48;49.26;97802.13;5045140;28;20101;-76
2022/01/31 07:56:53;;;;;;;48.60;8.05;;;4.80;99.90;;;4.56;49.99;97803.53;5026193;28;20037;-76
2022/01/31 07:59:19;;;;;;;31.50;6.53;;;4.80;99.90;;;4.72;49.52;97805.22;5028937;28;20355;-76
2022/01/31 08:01:45;;;;;;;28.52;6.30;;;4.90;99.90;;;4.80;49.40;97801.22;5009279;28;20037;-76
2022/01/31 08:04:12;;;;;;;28.88;7.32;;;5.00;99.90;;;4.85;48.63;97803.94;5009893;28;20128;-76
2022/01/31 08:06:38;;;;;;;25.95;7.70;;;5.10;99.90;;;4.89;49.39;97791.63;5047438;28;20045;-76
2022/01/31 08:09:04;;;;;;;38.45;8.38;;;5.10;99.90;;;4.99;48.54;97794.34;5061685;28;20114;-76
2022/01/31 08:11:32;;;;;;;32.47;7.13;;;5.20;99.80;;;5.07;48.17;97789.53;5027622;28;20045;-76
2022/01/31 08:14:02;;;;;;;34.70;8.52;;;5.30;99.40;;;5.02;48.60;97782.25;4992877;28;20045;-76
2022/01/31 08:16:28;;;;;;;30.30;7.57;;;5.30;99.50;;;5.05;47.68;97787.09;5011869;28;20425;-76
2022/01/31 08:18:54;;;;;;;25.13;8.18;;;5.30;99.10;;;5.15;48.26;97784.47;5045913;28;20053;-76
2022/01/31 08:21:20;;;;;;;19.92;7.00;;;5.30;99.20;;;5.13;47.60;97783.91;5045282;28;20128;-76
2022/01/31 08:23:46;;;;;;;30.00;7.18;;;5.40;99.20;;;5.10;48.11;97794.38;5042478;28;20102;-76
2022/01/31 08:26:16;;;;;;;36.33;8.88;;;5.40;98.90;;;5.05;47.82;97773.66;5043626;28;20141;-76
2022/01/31 08:28:53;;;;;;;38.67;9.52;;;5.30;98.90;;;4.96;48.20;97769.84;5029178;28;20041;-76
2022/01/31 08:31:24;;;;;;;41.97;9.07;;;5.20;98.80;;;4.99;48.97;97770.16;5029379;28;20400;-76
2022/01/31 08:36:23;;;;;;;37.83;9.32;;;5.20;99.30;;;4.90;48.41;97769.03;5044071;28;20507;-76
2022/01/31 08:38:50;;;;;;;40.47;9.10;;;5.20;99.40;;;4.98;48.59;97765.03;5046328;28;20504;-76
2022/01/31 08:41:16;;;;;;;25.92;7.97;;;5.20;99.40;;;5.01;48.52;97767.19;5056512;28;20045;-76
2022/01/31 08:43:43;;;;;;;43.10;9.75;;;5.20;99.30;;;4.91;49.04;97757.22;5022925;28;20036;-76
2022/01/31 08:46:12;;;;;;;34.50;9.80;;;5.20;99.30;;;4.93;48.92;97751.56;5026062;28;20047;-76
2022/01/31 08:48:38;;;;;;;30.08;8.77;;;5.10;99.40;;;4.99;48.23;97748.66;5040365;28;20064;-76
2022/01/31 08:51:06;;;;;;;33.80;9.13;;;5.20;99.20;;;5.11;48.53;97747.59;5025213;28;20044;-76
2022/01/31 08:53:33;;;;;;;38.05;9.10;;;5.20;99.30;;;5.23;48.22;97746.31;5022927;28;20289;-76
2022/01/31 08:56:05;;;;;;;34.08;8.88;;;5.40;99.00;;;5.48;47.87;97738.59;5022497;28;20497;-77
2022/01/31 08:58:32;;;;;;;46.78;10.32;;;5.60;98.90;;;5.68;47.34;97740.50;5023318;28;20112;-77
2022/01/31 09:01:01;;;;;;;25.98;8.25;;;5.80;98.50;;;5.69;46.82;97732.13;5044516;28;20049;-77
2022/01/31 09:04:02;;;;;;;39.97;8.82;;;5.90;98.10;;;5.73;46.97;97729.72;5044189;28;20048;-77
2022/01/31 09:06:25;;;;;;;40.58;9.02;;;5.90;98.00;;;5.67;46.97;97728.91;5043909;28;20435;-76
2022/01/31 09:08:51;;;;;;;29.77;9.30;;;5.90;97.80;;;5.68;46.63;97722.47;5043487;28;20045;-76
2022/01/31 09:11:17;;;;;;;34.33;8.75;;;5.90;97.50;;;5.85;46.90;97720.31;5061475;28;20045;-76
2022/01/31 09:13:43;;;;;;;36.30;11.20;;;6.00;97.50;;;5.99;45.96;97709.84;5013673;28;20407;-76
2022/01/31 09:16:09;;;;;;;38.50;10.43;;;6.20;97.20;;;6.07;45.60;97711.16;5027427;28;20057;-76
2022/01/31 09:18:36;;;;;;;35.03;10.02;;;6.20;96.80;;;6.18;45.76;97706.56;5026004;28;20063;-76
2022/01/31 09:21:03;;;;;;;30.10;9.15;;;6.40;97.00;;;6.26;45.32;97706.06;5041309;28;20090;-77
2022/01/31 09:23:29;;;;;;;38.00;9.48;;;6.50;96.50;;;6.29;45.76;97702.81;5056001;28;20515;-76
2022/01/31 09:25:55;;;;;;;24.63;8.15;;;6.60;96.10;;;6.38;45.20;97701.16;5038893;28;20238;-77
2022/01/31 09:28:22;;;;;;;40.85;11.80;;;6.70;95.90;;;6.48;45.19;97695.72;5023823;28;20071;-77
2022/01/31 09:30:48;;;;;;;36.83;10.50;;;6.70;95.80;;;6.60;45.44;97705.41;5021040;28;20037;-76
2022/01/31 09:33:15;;;;;;;38.25;10.68;;;6.80;96.00;;;6.55;44.77;97694.66;5028266;28;20511;-76
2022/01/31 09:35:42;;;;;;;36.92;9.63;;;6.90;95.70;;;6.44;45.08;97688.50;5026620;28;20489;-76
2022/01/31 09:38:08;;;;;;;48.80;12.98;;;6.80;95.40;;;6.34;44.87;97688.53;5041951;28;20085;-76
2022/01/31 09:40:35;;;;;;;47.55;13.07;;;6.70;95.30;;;6.29;45.58;97687.44;5038466;28;20057;-76
2022/01/31 09:51:15;;;;;;;34.08;10.20;;;6.50;95.70;;;6.28;45.84;97653.53;5042823;28;20052;-77
2022/01/31 09:53:47;;;;;;;40.53;11.27;;;6.50;95.70;;;6.29;46.16;97652.44;5022248;28;20512;-77
2022/01/31 09:56:15;;;;;;;;;;;6.60;95.90;;;6.18;46.17;97640.09;5027853;28;20408;-77
2022/01/31 09:58:41;;;;;;;47.05;11.02;;;6.60;95.70;;;6.26;46.17;97641.41;5043593;28;20019;-77
2022/01/31 10:01:16;;;;;;;46.53;12.30;;;6.60;95.90;;;6.34;45.79;97634.66;5042020;28;20069;-77
2022/01/31 10:03:57;;;;;;;48.97;11.98;;;6.60;95.90;;;6.29;45.82;97638.16;5042311;28;20045;-77
2022/01/31 10:06:28;;;;;;;45.55;10.85;;;6.70;95.60;;;6.19;46.08;97630.91;5010351;28;20045;-77
2022/01/31 10:09:18;;;;;;;55.85;14.95;;;6.60;95.70;;;6.22;46.11;97626.88;5045039;28;20041;-77
2022/01/31 10:11:51;;;;;;;43.50;12.52;;;6.60;96.00;;;6.19;46.09;97622.03;5044415;28;20072;-77
2022/01/31 10:17:26;;;;;;;44.15;11.75;;;6.60;95.60;;;6.08;46.25;97619.38;5047437;28;20404;-77
2022/01/31 10:19:55;;;;;;;57.03;12.10;;;6.50;95.90;;;6.10;46.47;97605.63;5001292;28;20038;-77
2022/01/31 10:22:25;;;;;;;40.45;11.48;;;6.40;96.00;;;6.08;46.58;97607.78;5022945;28;20528;-77
2022/01/31 10:24:57;;;;;;;44.20;9.68;;;6.40;96.40;;;6.04;46.61;97599.47;5034597;28;20510;-77
2022/01/31 10:27:29;;;;;;;39.10;11.80;;;6.40;96.00;;;5.96;46.32;97602.72;5041171;28;20068;-77
2022/01/31 10:30:08;;;;;;;42.67;10.80;;;6.40;95.80;;;5.90;46.56;97602.97;5037651;28;20044;-76
2022/01/31 10:32:36;;;;;;;42.83;11.82;;;6.20;95.90;;;5.82;47.44;97607.00;5022528;28;20116;-77
2022/01/31 10:35:08;;;;;;;39.25;10.77;;;6.20;96.40;;;5.83;47.17;97600.56;5039385;28;20103;-77
2022/01/31 10:37:36;;;;;;;45.83;10.30;;;6.20;96.50;;;5.74;47.29;97605.66;5025874;28;20048;-76
2022/01/31 10:53:53;;;;;;;36.55;12.55;;;5.90;97.00;;;5.68;48.27;97574.47;5028322;28;20042;-76
2022/01/31 10:56:20;;;;;;;41.88;11.95;;;5.90;97.10;;;5.64;47.27;97573.41;5013524;28;20091;-76